createdAt,value
2023-03-30T00:01:32.144Z,0.90
2023-03-30T00:11:37.979Z,0.80
2023-03-30T00:21:41.382Z,0.83
2023-03-30T00:31:45.705Z,1.10
2023-03-30T00:41:48.760Z,0.90
2023-03-30T00:51:53.342Z,0.90
2023-03-30T01:01:56.901Z,0.90
2023-03-30T01:12:01.805Z,1.00
2023-03-30T01:22:27.962Z,1.07
2023-03-30T01:33:01.358Z,0.90
2023-03-30T01:43:13.199Z,1.30
2023-03-30T01:53:19.481Z,1.77
2023-03-30T02:03:28.637Z,1.03
2023-03-30T02:13:33.760Z,1.10
2023-03-30T02:23:42.166Z,1.20
2023-03-30T02:44:04.083Z,1.13
2023-03-30T02:54:18.054Z,1.30
2023-03-30T03:04:51.113Z,1.20
2023-03-30T03:15:03.660Z,1.37
2023-03-30T03:25:12.006Z,1.77
2023-03-30T03:35:30.153Z,1.60
2023-03-30T03:45:37.092Z,1.67
2023-03-30T03:55:41.707Z,1.77
2023-03-30T04:05:46.375Z,1.23
2023-03-30T04:15:49.664Z,1.37
2023-03-30T04:26:08.006Z,1.80
2023-03-30T04:36:43.437Z,1.57
2023-03-30T04:47:11.101Z,1.60
2023-03-30T04:57:40.794Z,1.77
2023-03-30T05:08:05.779Z,1.43
2023-03-30T05:18:26.462Z,1.97
2023-03-30T05:28:32.594Z,2.07
2023-03-30T05:38:50.631Z,1.87
2023-03-30T05:49:15.531Z,1.13
2023-03-30T05:59:39.420Z,1.40
2023-03-30T06:10:04.784Z,1.40
2023-03-30T06:20:12.798Z,1.20
2023-03-30T06:30:22.397Z,1.27
2023-03-30T06:40:29.443Z,1.73
2023-03-30T06:50:36.928Z,1.63
2023-03-30T07:00:49.639Z,1.50
2023-03-30T07:11:17.001Z,1.87
2023-03-30T07:21:20.773Z,1.53
2023-03-30T07:31:26.374Z,2.10
2023-03-30T07:41:30.082Z,1.10
2023-03-30T07:51:37.049Z,1.10
2023-03-30T08:01:50.501Z,1.20
2023-03-30T08:12:16.084Z,0.80
2023-03-30T08:22:19.329Z,0.70
2023-03-30T08:32:24.587Z,0.57
2023-03-30T08:42:43.700Z,0.87
2023-03-30T08:52:48.628Z,1.13
2023-03-30T09:02:56.839Z,0.70
2023-03-30T09:13:04.017Z,0.70
2023-03-30T09:23:12.486Z,0.70
2023-03-30T09:33:28.037Z,1.10
2023-03-30T09:43:35.177Z,1.20
2023-03-30T09:53:42.355Z,0.63
2023-03-30T10:03:47.733Z,0.30
2023-03-30T10:13:52.506Z,0.30
2023-03-30T10:24:08.900Z,0.40
2023-03-30T10:34:19.324Z,0.40
2023-03-30T10:44:26.175Z,0.30
2023-03-30T10:54:38.052Z,0.30
2023-03-30T11:04:44.439Z,0.20
2023-03-30T11:14:54.035Z,0.30
2023-03-30T11:24:58.171Z,0.30
2023-03-30T11:35:10.762Z,0.47
2023-03-30T11:45:43.576Z,1.00
2023-03-30T11:56:03.225Z,0.30
2023-03-30T12:06:21.835Z,0.40
2023-03-30T12:26:35.276Z,0.50
2023-03-30T12:36:41.595Z,0.50
2023-03-30T12:46:58.517Z,0.90
2023-03-30T12:57:13.225Z,0.30
2023-03-30T13:07:22.839Z,0.40
2023-03-30T13:17:28.069Z,0.80
2023-03-30T13:27:34.613Z,0.53
2023-03-30T13:37:56.076Z,0.67
2023-03-30T13:48:10.655Z,1.33
2023-03-30T13:58:18.952Z,0.80
2023-03-30T14:08:22.398Z,0.53
2023-03-30T14:18:27.733Z,0.80
2023-03-30T14:28:35.177Z,1.23
2023-03-30T14:38:42.150Z,0.63
2023-03-30T14:48:50.648Z,1.07
2023-03-30T14:58:56.956Z,0.97
2023-03-30T15:09:04.774Z,1.23
2023-03-30T15:29:19.311Z,0.50
2023-03-30T15:39:25.683Z,0.57
2023-03-30T15:49:37.252Z,0.50
2023-03-30T15:59:47.079Z,0.67
2023-03-30T16:09:50.046Z,0.40
2023-03-30T16:19:54.731Z,0.60
2023-03-30T16:29:58.576Z,0.70
2023-03-30T16:40:04.445Z,0.97
2023-03-30T16:50:19.629Z,0.70
2023-03-30T17:00:27.275Z,2.23
2023-03-30T17:10:56.040Z,0.67
2023-03-30T17:21:03.040Z,0.60
2023-03-30T17:31:11.142Z,0.70
2023-03-30T17:41:19.621Z,0.50
2023-03-30T18:01:27.692Z,0.30
2023-03-30T18:11:30.984Z,0.40
2023-03-30T18:21:35.987Z,0.30
2023-03-30T18:31:40.369Z,0.40
2023-03-30T18:41:44.927Z,0.53
2023-03-30T18:51:48.051Z,0.60
2023-03-30T19:01:52.580Z,0.40
2023-03-30T19:11:57.275Z,1.53
2023-03-30T19:22:01.792Z,0.67
2023-03-30T19:32:05.645Z,0.73
2023-03-30T19:42:10.088Z,0.60
2023-03-30T19:52:13.110Z,1.10
2023-03-30T20:02:17.869Z,0.73
2023-03-30T20:12:21.403Z,0.80
2023-03-30T20:22:25.910Z,0.87
2023-03-30T20:32:29.039Z,0.77
2023-03-30T20:42:33.243Z,1.53
2023-03-30T20:52:36.046Z,0.60
2023-03-30T21:02:40.548Z,0.60
2023-03-30T21:12:43.621Z,0.50
2023-03-30T21:22:48.418Z,0.60
2023-03-30T21:32:51.671Z,0.50
2023-03-30T21:42:55.992Z,1.00
2023-03-30T21:52:59.544Z,0.93
2023-03-30T22:03:04.000Z,0.50
2023-03-30T22:13:07.420Z,0.50
2023-03-30T22:23:11.696Z,1.50
2023-03-30T22:33:15.895Z,0.50
2023-03-30T22:55:27.849Z,0.70
2023-03-30T23:05:33.623Z,0.50
2023-03-30T23:15:56.918Z,0.77
2023-03-30T23:26:03.030Z,0.50
2023-03-30T23:36:09.253Z,0.63
2023-03-30T23:46:13.357Z,0.60
2023-03-30T23:56:18.110Z,0.60
